sensor_id;sensor_type;location;lat;lon;timestamp;pressure;altitude;pressure_sealevel;temperature;humidity
24996;BME280;13016;52.162;21.034;2023-04-23T00:04:24;100130.98;;;15.93;43.58
24996;BME280;13016;52.162;21.034;2023-04-23T00:10:25;100126.48;;;15.77;43.75
24996;BME280;13016;52.162;21.034;2023-04-23T00:16:26;100127.95;;;15.74;43.86
24996;BME280;13016;52.162;21.034;2023-04-23T00:22:26;100125.86;;;15.72;43.83
24996;BME280;13016;52.162;21.034;2023-04-23T00:28:26;100123.23;;;15.65;44.05
24996;BME280;13016;52.162;21.034;2023-04-23T00:34:27;100117.54;;;15.59;44.32
24996;BME280;13016;52.162;21.034;2023-04-23T00:40:28;100112.40;;;15.53;44.74
24996;BME280;13016;52.162;21.034;2023-04-23T00:46:28;100109.11;;;15.40;44.92
24996;BME280;13016;52.162;21.034;2023-04-23T00:52:28;100111.13;;;15.41;44.80
24996;BME280;13016;52.162;21.034;2023-04-23T00:58:29;100113.90;;;15.42;44.36
24996;BME280;13016;52.162;21.034;2023-04-23T01:04:31;100116.98;;;15.43;44.46
24996;BME280;13016;52.162;21.034;2023-04-23T01:10:32;100119.40;;;15.37;44.78
24996;BME280;13016;52.162;21.034;2023-04-23T01:16:32;100120.34;;;15.29;45.20
24996;BME280;13016;52.162;21.034;2023-04-23T01:22:35;100121.61;;;15.26;45.15
24996;BME280;13016;52.162;21.034;2023-04-23T01:28:36;100125.20;;;15.22;45.44
24996;BME280;13016;52.162;21.034;2023-04-23T01:34:37;100119.87;;;15.13;45.71
24996;BME280;13016;52.162;21.034;2023-04-23T01:40:37;100120.00;;;15.01;45.99
24996;BME280;13016;52.162;21.034;2023-04-23T01:46:38;100118.88;;;14.84;46.56
24996;BME280;13016;52.162;21.034;2023-04-23T01:52:38;100116.73;;;14.76;46.83
24996;BME280;13016;52.162;21.034;2023-04-23T01:58:38;100122.09;;;14.76;46.80
24996;BME280;13016;52.162;21.034;2023-04-23T02:04:39;100119.42;;;14.65;46.97
24996;BME280;13016;52.162;21.034;2023-04-23T02:10:40;100123.45;;;14.53;47.25
24996;BME280;13016;52.162;21.034;2023-04-23T02:16:40;100120.77;;;14.44;47.48
24996;BME280;13016;52.162;21.034;2023-04-23T02:22:41;100122.03;;;14.40;47.62
24996;BME280;13016;52.162;21.034;2023-04-23T02:28:41;100119.73;;;14.38;47.62
24996;BME280;13016;52.162;21.034;2023-04-23T02:34:42;100117.39;;;14.29;47.76
24996;BME280;13016;52.162;21.034;2023-04-23T02:40:42;100115.98;;;14.27;47.83
24996;BME280;13016;52.162;21.034;2023-04-23T02:46:42;100115.83;;;14.25;47.89
24996;BME280;13016;52.162;21.034;2023-04-23T02:52:42;100111.59;;;14.15;48.16
24996;BME280;13016;52.162;21.034;2023-04-23T02:58:43;100109.18;;;14.08;48.44
24996;BME280;13016;52.162;21.034;2023-04-23T03:04:43;100109.91;;;14.03;48.52
24996;BME280;13016;52.162;21.034;2023-04-23T03:10:43;100116.67;;;13.98;48.64
24996;BME280;13016;52.162;21.034;2023-04-23T03:16:44;100115.80;;;13.92;48.82
24996;BME280;13016;52.162;21.034;2023-04-23T03:22:44;100114.44;;;13.86;49.07
24996;BME280;13016;52.162;21.034;2023-04-23T03:28:45;100110.02;;;13.82;49.23
24996;BME280;13016;52.162;21.034;2023-04-23T03:34:45;100110.02;;;13.84;49.24
24996;BME280;13016;52.162;21.034;2023-04-23T03:40:45;100110.88;;;13.84;49.30
24996;BME280;13016;52.162;21.034;2023-04-23T03:46:45;100110.96;;;13.83;49.21
24996;BME280;13016;52.162;21.034;2023-04-23T03:52:46;100105.40;;;13.82;49.39
24996;BME280;13016;52.162;21.034;2023-04-23T03:58:46;100105.77;;;13.86;49.47
24996;BME280;13016;52.162;21.034;2023-04-23T04:04:47;100109.54;;;13.90;49.45
24996;BME280;13016;52.162;21.034;2023-04-23T04:10:47;100114.27;;;13.91;49.76
24996;BME280;13016;52.162;21.034;2023-04-23T04:16:48;100113.91;;;14.00;49.77
24996;BME280;13016;52.162;21.034;2023-04-23T04:22:48;100112.30;;;14.11;49.60
24996;BME280;13016;52.162;21.034;2023-04-23T04:28:48;100114.04;;;14.24;49.33
24996;BME280;13016;52.162;21.034;2023-04-23T04:34:48;100111.80;;;14.33;49.25
24996;BME280;13016;52.162;21.034;2023-04-23T04:40:49;100114.74;;;14.53;48.95
24996;BME280;13016;52.162;21.034;2023-04-23T04:46:49;100112.71;;;14.73;48.70
24996;BME280;13016;52.162;21.034;2023-04-23T04:52:49;100118.34;;;15.08;47.71
24996;BME280;13016;52.162;21.034;2023-04-23T04:58:50;100121.09;;;15.45;47.00
24996;BME280;13016;52.162;21.034;2023-04-23T05:04:50;100118.52;;;15.77;45.41
24996;BME280;13016;52.162;21.034;2023-04-23T05:10:50;100116.38;;;16.25;44.01
24996;BME280;13016;52.162;21.034;2023-04-23T05:16:51;100114.46;;;16.86;42.93
24996;BME280;13016;52.162;21.034;2023-04-23T05:22:51;100116.45;;;17.41;41.67
24996;BME280;13016;52.162;21.034;2023-04-23T05:28:51;100117.77;;;18.13;40.30
24996;BME280;13016;52.162;21.034;2023-04-23T05:34:51;100118.28;;;18.36;39.26
24996;BME280;13016;52.162;21.034;2023-04-23T05:40:52;100120.82;;;18.82;38.21
24996;BME280;13016;52.162;21.034;2023-04-23T05:46:52;100117.98;;;19.37;36.58
24996;BME280;13016;52.162;21.034;2023-04-23T05:52:52;100118.50;;;20.47;35.16
24996;BME280;13016;52.162;21.034;2023-04-23T05:58:52;100121.77;;;20.96;35.05
24996;BME280;13016;52.162;21.034;2023-04-23T06:04:53;100121.34;;;22.28;33.73
24996;BME280;13016;52.162;21.034;2023-04-23T06:10:53;100119.55;;;23.42;31.73
24996;BME280;13016;52.162;21.034;2023-04-23T06:16:54;100125.63;;;24.08;31.06
24996;BME280;13016;52.162;21.034;2023-04-23T06:22:54;100119.20;;;24.76;30.03
24996;BME280;13016;52.162;21.034;2023-04-23T06:28:54;100122.90;;;25.02;29.66
24996;BME280;13016;52.162;21.034;2023-04-23T06:34:54;100125.07;;;25.15;29.40
24996;BME280;13016;52.162;21.034;2023-04-23T06:40:55;100124.35;;;25.81;28.71
24996;BME280;13016;52.162;21.034;2023-04-23T06:46:55;100122.23;;;25.85;28.50
24996;BME280;13016;52.162;21.034;2023-04-23T06:52:55;100116.98;;;25.86;28.55
24996;BME280;13016;52.162;21.034;2023-04-23T06:58:56;100116.23;;;26.12;27.52
24996;BME280;13016;52.162;21.034;2023-04-23T07:04:56;100110.67;;;26.25;27.00
24996;BME280;13016;52.162;21.034;2023-04-23T07:11:06;100112.86;;;27.00;26.00
24996;BME280;13016;52.162;21.034;2023-04-23T07:17:06;100106.22;;;26.84;26.03
24996;BME280;13016;52.162;21.034;2023-04-23T07:23:06;100110.70;;;26.61;26.27
24996;BME280;13016;52.162;21.034;2023-04-23T07:29:07;100107.39;;;27.72;24.85
24996;BME280;13016;52.162;21.034;2023-04-23T07:35:08;100100.05;;;27.40;22.94
24996;BME280;13016;52.162;21.034;2023-04-23T07:52:01;100084.84;;;27.07;22.60
24996;BME280;13016;52.162;21.034;2023-04-23T07:58:01;100083.92;;;27.04;22.37
24996;BME280;13016;52.162;21.034;2023-04-23T08:16:17;100084.60;;;27.55;21.49
24996;BME280;13016;52.162;21.034;2023-04-23T08:22:18;100078.95;;;27.41;21.04
24996;BME280;13016;52.162;21.034;2023-04-23T08:28:18;100077.71;;;27.72;21.87
24996;BME280;13016;52.162;21.034;2023-04-23T08:34:19;100072.63;;;27.80;20.86
24996;BME280;13016;52.162;21.034;2023-04-23T08:40:19;100066.87;;;28.40;20.51
24996;BME280;13016;52.162;21.034;2023-04-23T08:46:22;100064.02;;;28.32;19.84
24996;BME280;13016;52.162;21.034;2023-04-23T08:52:25;100058.20;;;27.96;20.30
24996;BME280;13016;52.162;21.034;2023-04-23T08:58:27;100052.11;;;27.99;20.21
24996;BME280;13016;52.162;21.034;2023-04-23T09:04:44;100047.70;;;28.23;20.45
24996;BME280;13016;52.162;21.034;2023-04-23T09:10:44;100043.47;;;27.47;20.36
24996;BME280;13016;52.162;21.034;2023-04-23T09:16:45;100035.30;;;26.92;21.71
24996;BME280;13016;52.162;21.034;2023-04-23T09:22:47;100029.70;;;27.36;21.12
24996;BME280;13016;52.162;21.034;2023-04-23T09:28:49;100031.38;;;27.46;21.32
24996;BME280;13016;52.162;21.034;2023-04-23T09:34:55;100025.95;;;27.11;21.06
24996;BME280;13016;52.162;21.034;2023-04-23T09:40:56;100022.21;;;26.86;21.70
24996;BME280;13016;52.162;21.034;2023-04-23T09:46:56;100019.35;;;26.62;22.08
24996;BME280;13016;52.162;21.034;2023-04-23T09:53:05;100013.44;;;26.64;22.45
24996;BME280;13016;52.162;21.034;2023-04-23T09:59:24;99999.98;;;25.91;21.97
24996;BME280;13016;52.162;21.034;2023-04-23T10:05:25;99993.21;;;25.42;22.48
24996;BME280;13016;52.162;21.034;2023-04-23T10:11:27;99988.94;;;25.56;23.19
24996;BME280;13016;52.162;21.034;2023-04-23T10:17:28;99982.49;;;25.95;22.77
24996;BME280;13016;52.162;21.034;2023-04-23T10:23:28;99968.40;;;26.30;22.73
24996;BME280;13016;52.162;21.034;2023-04-23T10:29:32;99963.79;;;26.24;22.34
24996;BME280;13016;52.162;21.034;2023-04-23T10:35:32;99961.94;;;25.97;22.83
24996;BME280;13016;52.162;21.034;2023-04-23T10:41:36;99956.21;;;25.93;21.72
24996;BME280;13016;52.162;21.034;2023-04-23T10:47:37;99951.80;;;25.69;22.34
24996;BME280;13016;52.162;21.034;2023-04-23T10:53:40;99943.23;;;25.24;22.02
24996;BME280;13016;52.162;21.034;2023-04-23T10:59:52;99935.77;;;25.36;22.07
24996;BME280;13016;52.162;21.034;2023-04-23T11:05:53;99929.70;;;25.02;23.22
24996;BME280;13016;52.162;21.034;2023-04-23T11:11:54;99925.59;;;25.61;22.86
24996;BME280;13016;52.162;21.034;2023-04-23T11:23:54;99920.13;;;26.11;21.35
24996;BME280;13016;52.162;21.034;2023-04-23T11:29:55;99909.00;;;26.10;22.04
24996;BME280;13016;52.162;21.034;2023-04-23T11:35:56;99909.73;;;26.13;21.57
24996;BME280;13016;52.162;21.034;2023-04-23T11:41:56;99901.56;;;25.88;20.93
24996;BME280;13016;52.162;21.034;2023-04-23T11:47:57;99892.98;;;25.93;21.46
24996;BME280;13016;52.162;21.034;2023-04-23T11:54:03;99899.11;;;26.24;22.36
24996;BME280;13016;52.162;21.034;2023-04-23T12:00:14;99893.05;;;26.67;21.34
24996;BME280;13016;52.162;21.034;2023-04-23T12:06:17;99888.38;;;26.75;20.59
24996;BME280;13016;52.162;21.034;2023-04-23T12:12:17;99890.66;;;26.62;20.60
24996;BME280;13016;52.162;21.034;2023-04-23T12:18:18;99889.36;;;26.37;20.82
24996;BME280;13016;52.162;21.034;2023-04-23T12:24:18;99878.25;;;26.55;20.55
24996;BME280;13016;52.162;21.034;2023-04-23T12:30:19;99870.73;;;26.47;20.96
24996;BME280;13016;52.162;21.034;2023-04-23T12:36:19;99867.39;;;26.55;20.61
24996;BME280;13016;52.162;21.034;2023-04-23T12:42:19;99856.98;;;26.62;20.09
24996;BME280;13016;52.162;21.034;2023-04-23T12:48:20;99856.40;;;26.41;21.04
24996;BME280;13016;52.162;21.034;2023-04-23T12:54:20;99850.55;;;26.38;20.38
24996;BME280;13016;52.162;21.034;2023-04-23T13:00:21;99844.49;;;26.58;20.06
24996;BME280;13016;52.162;21.034;2023-04-23T13:06:21;99840.64;;;26.60;20.44
24996;BME280;13016;52.162;21.034;2023-04-23T13:12:22;99829.60;;;26.71;19.69
24996;BME280;13016;52.162;21.034;2023-04-23T13:18:22;99823.55;;;26.64;20.18
24996;BME280;13016;52.162;21.034;2023-04-23T13:24:23;99810.00;;;26.50;20.50
24996;BME280;13016;52.162;21.034;2023-04-23T13:30:23;99801.70;;;26.70;20.97
24996;BME280;13016;52.162;21.034;2023-04-23T13:36:24;99794.15;;;26.79;20.68
24996;BME280;13016;52.162;21.034;2023-04-23T13:42:24;99791.94;;;26.40;20.97
24996;BME280;13016;52.162;21.034;2023-04-23T13:48:25;99790.45;;;26.37;20.07
24996;BME280;13016;52.162;21.034;2023-04-23T13:54:25;99781.14;;;26.27;19.88
24996;BME280;13016;52.162;21.034;2023-04-23T14:00:27;99778.84;;;26.43;20.56
24996;BME280;13016;52.162;21.034;2023-04-23T14:06:28;99764.35;;;26.48;20.85
24996;BME280;13016;52.162;21.034;2023-04-23T14:12:28;99755.88;;;26.52;21.05
24996;BME280;13016;52.162;21.034;2023-04-23T14:18:29;99751.91;;;26.27;20.96
24996;BME280;13016;52.162;21.034;2023-04-23T14:24:33;99746.98;;;26.63;21.29
24996;BME280;13016;52.162;21.034;2023-04-23T14:30:33;99742.40;;;26.60;20.80
24996;BME280;13016;52.162;21.034;2023-04-23T14:36:34;99735.35;;;26.47;20.98
24996;BME280;13016;52.162;21.034;2023-04-23T14:42:34;99739.24;;;26.21;21.24
24996;BME280;13016;52.162;21.034;2023-04-23T14:48:34;99735.81;;;26.35;21.48
24996;BME280;13016;52.162;21.034;2023-04-23T14:54:35;99735.80;;;26.36;21.60
24996;BME280;13016;52.162;21.034;2023-04-23T15:00:35;99728.42;;;26.53;21.00
24996;BME280;13016;52.162;21.034;2023-04-23T15:06:36;99719.80;;;26.81;21.29
24996;BME280;13016;52.162;21.034;2023-04-23T15:18:39;99717.60;;;26.58;21.42
24996;BME280;13016;52.162;21.034;2023-04-23T15:24:39;99712.13;;;26.73;21.14
24996;BME280;13016;52.162;21.034;2023-04-23T15:30:41;99705.23;;;26.40;21.20
24996;BME280;13016;52.162;21.034;2023-04-23T15:36:44;99700.94;;;26.30;21.37
24996;BME280;13016;52.162;21.034;2023-04-23T15:42:45;99696.73;;;26.29;21.33
24996;BME280;13016;52.162;21.034;2023-04-23T15:48:45;99689.09;;;26.16;21.48
24996;BME280;13016;52.162;21.034;2023-04-23T15:54:46;99689.16;;;26.38;21.63
24996;BME280;13016;52.162;21.034;2023-04-23T16:01:07;99686.23;;;26.49;21.45
24996;BME280;13016;52.162;21.034;2023-04-23T16:07:07;99682.08;;;26.04;21.55
24996;BME280;13016;52.162;21.034;2023-04-23T16:13:07;99673.83;;;26.06;21.56
24996;BME280;13016;52.162;21.034;2023-04-23T16:19:08;99678.58;;;26.38;21.68
24996;BME280;13016;52.162;21.034;2023-04-23T16:25:08;99676.80;;;26.12;21.92
24996;BME280;13016;52.162;21.034;2023-04-23T16:31:08;99670.15;;;26.34;21.67
24996;BME280;13016;52.162;21.034;2023-04-23T16:37:09;99663.39;;;26.40;21.42
24996;BME280;13016;52.162;21.034;2023-04-23T16:43:09;99660.39;;;26.29;21.75
24996;BME280;13016;52.162;21.034;2023-04-23T16:49:18;99660.73;;;26.17;21.80
24996;BME280;13016;52.162;21.034;2023-04-23T16:55:19;99658.64;;;26.23;21.77
24996;BME280;13016;52.162;21.034;2023-04-23T17:01:20;99653.34;;;26.00;21.94
24996;BME280;13016;52.162;21.034;2023-04-23T17:07:20;99654.20;;;25.74;22.30
24996;BME280;13016;52.162;21.034;2023-04-23T17:13:40;99656.07;;;25.72;22.22
24996;BME280;13016;52.162;21.034;2023-04-23T17:47:38;99645.84;;;25.20;22.69
24996;BME280;13016;52.162;21.034;2023-04-23T18:56:06;99639.94;;;24.27;24.36
24996;BME280;13016;52.162;21.034;2023-04-23T19:10:21;99634.25;;;23.18;25.64
24996;BME280;13016;52.162;21.034;2023-04-23T19:16:21;99636.80;;;22.95;25.80
24996;BME280;13016;52.162;21.034;2023-04-23T19:22:22;99630.46;;;22.74;26.05
24996;BME280;13016;52.162;21.034;2023-04-23T19:34:04;99628.92;;;22.56;26.30
24996;BME280;13016;52.162;21.034;2023-04-23T19:40:05;99623.94;;;22.44;26.31
24996;BME280;13016;52.162;21.034;2023-04-23T19:46:06;99622.52;;;22.29;26.59
24996;BME280;13016;52.162;21.034;2023-04-23T19:52:08;99619.80;;;22.32;26.71
24996;BME280;13016;52.162;21.034;2023-04-23T19:58:09;99617.05;;;22.12;27.08
24996;BME280;13016;52.162;21.034;2023-04-23T20:04:10;99608.96;;;21.96;27.35
24996;BME280;13016;52.162;21.034;2023-04-23T20:10:10;99611.27;;;21.89;27.50
24996;BME280;13016;52.162;21.034;2023-04-23T20:16:11;99604.95;;;21.86;27.57
24996;BME280;13016;52.162;21.034;2023-04-23T20:22:11;99605.98;;;21.78;27.74
24996;BME280;13016;52.162;21.034;2023-04-23T20:28:12;99603.04;;;21.55;28.24
24996;BME280;13016;52.162;21.034;2023-04-23T20:34:14;99602.96;;;21.63;28.21
24996;BME280;13016;52.162;21.034;2023-04-23T20:40:15;99597.79;;;21.53;28.40
24996;BME280;13016;52.162;21.034;2023-04-23T20:46:16;99599.00;;;21.41;28.66
24996;BME280;13016;52.162;21.034;2023-04-23T20:52:16;99597.55;;;21.37;28.85
24996;BME280;13016;52.162;21.034;2023-04-23T20:58:17;99602.69;;;21.24;29.22
24996;BME280;13016;52.162;21.034;2023-04-23T21:04:17;99598.34;;;21.15;29.50
24996;BME280;13016;52.162;21.034;2023-04-23T21:10:19;99599.61;;;21.17;29.50
24996;BME280;13016;52.162;21.034;2023-04-23T21:16:19;99599.04;;;21.49;29.11
24996;BME280;13016;52.162;21.034;2023-04-23T21:22:19;99603.15;;;21.55;29.07
24996;BME280;13016;52.162;21.034;2023-04-23T21:28:20;99607.53;;;21.42;29.53
24996;BME280;13016;52.162;21.034;2023-04-23T21:34:20;99601.35;;;21.14;29.98
24996;BME280;13016;52.162;21.034;2023-04-23T21:40:21;99604.31;;;20.80;30.78
24996;BME280;13016;52.162;21.034;2023-04-23T21:46:22;99618.14;;;20.99;31.05
24996;BME280;13016;52.162;21.034;2023-04-23T21:52:22;99622.68;;;20.94;31.56
24996;BME280;13016;52.162;21.034;2023-04-23T21:58:22;99609.10;;;20.45;32.55
24996;BME280;13016;52.162;21.034;2023-04-23T22:04:23;99596.42;;;20.19;32.77
24996;BME280;13016;52.162;21.034;2023-04-23T22:10:23;99593.05;;;20.03;33.21
24996;BME280;13016;52.162;21.034;2023-04-23T22:16:24;99586.15;;;19.99;33.01
24996;BME280;13016;52.162;21.034;2023-04-23T22:22:25;99576.48;;;19.64;33.61
24996;BME280;13016;52.162;21.034;2023-04-23T22:28:25;99575.83;;;19.54;33.76
24996;BME280;13016;52.162;21.034;2023-04-23T22:34:26;99571.08;;;19.54;33.86
24996;BME280;13016;52.162;21.034;2023-04-23T22:40:26;99569.33;;;19.63;33.87
24996;BME280;13016;52.162;21.034;2023-04-23T22:46:27;99566.65;;;19.55;34.24
24996;BME280;13016;52.162;21.034;2023-04-23T22:52:27;99570.29;;;19.72;34.12
24996;BME280;13016;52.162;21.034;2023-04-23T22:58:27;99580.34;;;20.08;33.53
24996;BME280;13016;52.162;21.034;2023-04-23T23:04:27;99574.83;;;19.79;34.00
24996;BME280;13016;52.162;21.034;2023-04-23T23:10:28;99571.14;;;19.64;34.25
24996;BME280;13016;52.162;21.034;2023-04-23T23:16:29;99569.50;;;19.53;34.51
24996;BME280;13016;52.162;21.034;2023-04-23T23:22:29;99562.98;;;19.43;34.79
24996;BME280;13016;52.162;21.034;2023-04-23T23:28:29;99558.41;;;19.34;35.08
24996;BME280;13016;52.162;21.034;2023-04-23T23:34:30;99551.93;;;19.31;35.33
24996;BME280;13016;52.162;21.034;2023-04-23T23:40:30;99541.73;;;19.32;35.32
24996;BME280;13016;52.162;21.034;2023-04-23T23:46:30;99535.73;;;19.38;35.46
24996;BME280;13016;52.162;21.034;2023-04-23T23:52:31;99530.44;;;19.41;35.26
24996;BME280;13016;52.162;21.034;2023-04-23T23:58:31;99526.13;;;19.35;35.33
